createdAt,value
2019-05-14T00:00:27.232Z,2.87
2019-05-14T00:02:56.942Z,9.70
2019-05-14T00:05:26.578Z,2.80
2019-05-14T00:07:56.801Z,4.63
2019-05-14T00:10:26.666Z,2.83
2019-05-14T00:12:56.509Z,4.03
2019-05-14T00:15:26.007Z,3.07
2019-05-14T00:17:55.710Z,5.20
2019-05-14T00:20:25.145Z,6.03
2019-05-14T00:22:54.930Z,7.67
2019-05-14T00:25:24.736Z,6.07
2019-05-14T00:27:54.406Z,29.80
2019-05-14T00:30:24.360Z,12.57
2019-05-14T00:32:53.967Z,7.17
2019-05-14T00:35:23.818Z,5.27
2019-05-14T00:37:54.198Z,5.73
2019-05-14T00:40:23.752Z,4.57
2019-05-14T00:42:53.576Z,4.00
2019-05-14T00:45:23.593Z,4.40
2019-05-14T00:47:53.189Z,5.60
2019-05-14T00:50:22.865Z,3.80
2019-05-14T00:52:52.462Z,7.47
2019-05-14T00:55:22.410Z,4.53
2019-05-14T00:57:52.369Z,3.30
2019-05-14T01:00:22.252Z,5.30
2019-05-14T01:02:52.475Z,5.10
2019-05-14T01:05:22.185Z,3.53
2019-05-14T01:07:51.792Z,4.83
2019-05-14T01:10:22.126Z,5.33
2019-05-14T01:12:52.319Z,6.20
2019-05-14T01:15:21.898Z,7.20
2019-05-14T01:17:51.703Z,5.00
2019-05-14T01:20:21.447Z,2.97
2019-05-14T01:22:51.798Z,1.77
2019-05-14T01:25:23.641Z,2.23
2019-05-14T01:27:52.806Z,3.20
2019-05-14T01:30:22.493Z,2.97
2019-05-14T01:32:52.057Z,2.03
2019-05-14T01:35:22.210Z,4.53
2019-05-14T01:37:52.396Z,1.63
2019-05-14T01:40:22.257Z,3.70
2019-05-14T01:42:52.380Z,2.27
2019-05-14T01:45:27.993Z,2.13
2019-05-14T01:47:53.065Z,2.23
2019-05-14T01:50:22.543Z,5.00
2019-05-14T01:52:52.260Z,2.63
2019-05-14T01:55:22.005Z,1.93
2019-05-14T01:57:51.871Z,3.53
2019-05-14T02:00:22.441Z,3.23
2019-05-14T02:02:52.455Z,5.07
2019-05-14T02:05:22.581Z,2.50
2019-05-14T02:07:52.644Z,3.13
2019-05-14T02:10:22.380Z,3.10
2019-05-14T02:12:52.114Z,2.77
2019-05-14T02:15:35.232Z,4.57
2019-05-14T02:17:57.513Z,1.53
2019-05-14T02:20:26.906Z,3.47
2019-05-14T02:22:56.423Z,2.47
2019-05-14T02:25:25.958Z,4.37
2019-05-14T02:27:55.905Z,2.00
2019-05-14T02:30:38.483Z,4.00
2019-05-14T02:32:59.738Z,3.30
2019-05-14T02:35:30.084Z,3.17
2019-05-14T02:37:59.896Z,2.87
2019-05-14T02:40:29.676Z,2.23
2019-05-14T02:42:59.570Z,1.70
2019-05-14T02:45:30.421Z,3.00
2019-05-14T02:48:00.554Z,2.40
2019-05-14T02:50:30.609Z,3.00
2019-05-14T02:53:00.183Z,1.40
2019-05-14T02:55:30.163Z,2.93
2019-05-14T02:58:03.082Z,5.50
2019-05-14T03:00:32.888Z,4.10
2019-05-14T03:03:05.450Z,2.97
2019-05-14T03:05:35.367Z,2.40
2019-05-14T03:08:05.030Z,2.00
2019-05-14T03:10:34.569Z,1.50
2019-05-14T03:13:04.084Z,1.73
2019-05-14T03:15:33.751Z,4.70
2019-05-14T03:18:03.490Z,3.23
2019-05-14T03:20:33.177Z,2.77
2019-05-14T03:23:08.704Z,4.47
2019-05-14T03:25:34.105Z,3.30
2019-05-14T03:28:09.347Z,2.60
2019-05-14T03:30:42.351Z,4.07
2019-05-14T03:33:13.179Z,2.80
2019-05-14T03:35:49.131Z,3.20
2019-05-14T03:38:12.053Z,1.93
2019-05-14T03:40:41.771Z,2.73
2019-05-14T03:43:11.429Z,2.30
2019-05-14T03:45:41.022Z,2.57
2019-05-14T03:48:10.718Z,1.77
2019-05-14T03:50:40.341Z,3.90
2019-05-14T03:53:10.327Z,3.37
2019-05-14T03:55:40.484Z,5.87
2019-05-14T03:58:10.289Z,2.17
2019-05-14T04:01:00.284Z,2.70
2019-05-14T04:03:34.555Z,3.23
2019-05-14T04:06:04.206Z,4.07
2019-05-14T04:08:35.274Z,2.83
2019-05-14T04:11:04.804Z,2.57
2019-05-14T04:13:35.334Z,2.00
2019-05-14T04:16:05.384Z,3.33
2019-05-14T04:18:42.415Z,2.03
2019-05-14T04:21:14.329Z,2.67
2019-05-14T04:23:51.836Z,2.20
2019-05-14T04:26:22.032Z,5.90
2019-05-14T04:28:55.146Z,3.60
2019-05-14T04:31:24.922Z,3.60
2019-05-14T04:33:59.193Z,4.97
2019-05-14T04:36:30.061Z,5.67
2019-05-14T04:39:00.753Z,2.17
2019-05-14T04:41:30.617Z,2.93
2019-05-14T04:44:00.822Z,2.67
2019-05-14T04:46:31.452Z,2.50
2019-05-14T04:49:01.075Z,2.33
2019-05-14T04:51:30.678Z,3.97
2019-05-14T04:54:00.332Z,3.53
2019-05-14T04:56:30.472Z,3.33
2019-05-14T04:59:00.026Z,4.93
2019-05-14T05:01:29.779Z,1.77
2019-05-14T05:03:59.448Z,2.40
2019-05-14T05:06:29.323Z,5.10
2019-05-14T05:09:00.142Z,2.53
2019-05-14T05:11:29.762Z,2.00
2019-05-14T05:13:59.425Z,4.17
2019-05-14T05:16:29.545Z,3.67
2019-05-14T05:18:59.703Z,2.63
2019-05-14T05:21:29.030Z,3.97
2019-05-14T05:23:58.626Z,3.27
2019-05-14T05:26:28.665Z,2.60
2019-05-14T05:29:05.846Z,7.47
2019-05-14T05:31:29.647Z,2.27
2019-05-14T05:33:58.977Z,2.17
2019-05-14T05:36:29.106Z,5.73
2019-05-14T05:38:59.349Z,4.47
2019-05-14T05:41:28.883Z,4.13
2019-05-14T05:43:58.938Z,4.13
2019-05-14T05:46:28.631Z,5.03
2019-05-14T05:48:58.772Z,3.57
2019-05-14T05:51:28.867Z,2.20
2019-05-14T05:53:58.825Z,3.73
2019-05-14T05:56:28.837Z,2.33
2019-05-14T05:59:00.472Z,2.27
2019-05-14T06:01:41.772Z,4.57
2019-05-14T06:04:00.862Z,4.20
2019-05-14T06:06:30.576Z,3.17
2019-05-14T06:08:59.965Z,5.40
2019-05-14T06:11:29.442Z,2.50
2019-05-14T06:13:59.114Z,1.80
2019-05-14T06:16:28.993Z,3.20
2019-05-14T06:18:58.909Z,3.27
2019-05-14T06:21:29.286Z,2.83
2019-05-14T06:24:02.581Z,3.60
2019-05-14T06:26:30.010Z,5.83
2019-05-14T06:28:59.981Z,3.20
2019-05-14T06:31:29.435Z,5.03
2019-05-14T06:33:59.126Z,7.37
2019-05-14T06:36:29.060Z,3.00
2019-05-14T06:38:58.813Z,4.40
2019-05-14T06:41:28.618Z,3.07
2019-05-14T06:43:59.095Z,3.13
2019-05-14T06:46:28.783Z,4.33
2019-05-14T06:48:59.043Z,3.30
2019-05-14T06:51:28.943Z,2.27
2019-05-14T06:53:58.913Z,5.33
2019-05-14T06:56:28.474Z,4.10
2019-05-14T06:58:58.447Z,3.60
2019-05-14T07:01:29.123Z,3.77
2019-05-14T07:03:58.760Z,2.50
2019-05-14T07:06:29.129Z,2.13
2019-05-14T07:08:58.971Z,4.00
2019-05-14T07:11:29.256Z,3.07
2019-05-14T07:13:58.577Z,3.10
2019-05-14T07:16:28.661Z,2.40
2019-05-14T07:18:59.172Z,4.07
2019-05-14T07:21:29.161Z,2.27
2019-05-14T07:23:59.358Z,2.00
2019-05-14T07:26:29.479Z,4.13
2019-05-14T07:28:59.195Z,2.17
2019-05-14T07:31:29.104Z,2.27
2019-05-14T07:33:58.527Z,2.10
2019-05-14T07:36:29.256Z,4.10
2019-05-14T07:39:00.193Z,3.50
2019-05-14T07:41:29.833Z,1.97
2019-05-14T07:43:59.145Z,4.13
2019-05-14T07:46:28.450Z,2.73
2019-05-14T07:49:05.397Z,5.50
2019-05-14T07:51:28.649Z,2.73
2019-05-14T07:53:58.080Z,3.97
2019-05-14T07:56:29.305Z,1.87
2019-05-14T07:59:01.720Z,3.60
2019-05-14T08:01:29.740Z,2.93
2019-05-14T08:04:00.115Z,2.73
2019-05-14T08:06:29.897Z,2.43
2019-05-14T08:08:59.328Z,1.83
2019-05-14T08:11:28.754Z,2.10
2019-05-14T08:13:58.629Z,2.63
2019-05-14T08:16:28.781Z,2.80
2019-05-14T08:19:00.175Z,2.50
2019-05-14T08:21:29.492Z,1.93
2019-05-14T08:23:59.241Z,3.03
2019-05-14T08:26:29.446Z,2.30
2019-05-14T08:28:58.763Z,2.07
2019-05-14T08:31:29.270Z,1.83
2019-05-14T08:33:59.112Z,3.70
2019-05-14T08:36:28.723Z,3.60
2019-05-14T08:38:58.209Z,3.63
2019-05-14T08:41:28.831Z,3.00
2019-05-14T08:43:59.574Z,3.83
2019-05-14T08:46:29.874Z,2.13
2019-05-14T08:48:59.209Z,3.23
2019-05-14T08:51:29.510Z,2.33
2019-05-14T08:53:59.326Z,21.87
2019-05-14T08:56:28.585Z,3.00
2019-05-14T08:58:59.079Z,4.03
2019-05-14T09:01:29.386Z,3.50
2019-05-14T09:03:59.601Z,2.13
2019-05-14T09:06:29.126Z,3.60
2019-05-14T09:08:59.524Z,3.57
2019-05-14T09:11:35.762Z,1.80
2019-05-14T09:14:00.507Z,2.33
2019-05-14T09:16:41.785Z,2.27
2019-05-14T09:19:00.767Z,2.17
2019-05-14T09:21:30.027Z,5.23
2019-05-14T09:23:59.212Z,2.57
2019-05-14T09:26:28.576Z,3.53
2019-05-14T09:28:58.692Z,2.50
2019-05-14T09:31:29.618Z,3.33
2019-05-14T09:33:58.906Z,4.23
2019-05-14T09:36:28.926Z,3.30
2019-05-14T09:38:58.490Z,2.37
2019-05-14T09:41:30.805Z,37.03
2019-05-14T09:43:58.847Z,15.07
2019-05-14T09:46:28.972Z,22.13
2019-05-14T09:48:58.903Z,24.07
2019-05-14T09:51:28.848Z,3.60
2019-05-14T09:53:58.954Z,9.38
2019-05-14T09:56:29.095Z,7.42
2019-05-14T09:58:58.796Z,20.05
2019-05-14T10:01:28.171Z,2.95
2019-05-14T10:03:59.190Z,14.18
2019-05-14T10:06:28.620Z,8.13
2019-05-14T10:08:59.033Z,11.35
2019-05-14T10:11:29.044Z,3.42
2019-05-14T10:13:59.773Z,5.27
2019-05-14T10:16:29.293Z,7.45
2019-05-14T10:18:58.572Z,9.50
2019-05-14T10:21:29.310Z,8.68
2019-05-14T10:23:58.754Z,4.50
2019-05-14T10:26:28.850Z,5.83
2019-05-14T10:28:59.080Z,10.60
2019-05-14T10:31:29.145Z,5.03
2019-05-14T10:33:58.978Z,7.22
2019-05-14T10:36:29.974Z,4.80
2019-05-14T10:38:59.652Z,8.03
2019-05-14T10:41:29.292Z,7.90
2019-05-14T10:43:59.128Z,3.90
2019-05-14T10:46:29.340Z,4.55
2019-05-14T10:49:14.710Z,5.53
2019-05-14T10:51:30.203Z,6.55
2019-05-14T10:53:59.768Z,6.95
2019-05-14T10:56:29.867Z,3.60
2019-05-14T10:58:59.260Z,2.02
2019-05-14T11:01:28.642Z,7.17
2019-05-14T11:03:58.017Z,8.13
2019-05-14T11:06:29.382Z,6.40
2019-05-14T11:08:58.262Z,2.47
2019-05-14T11:11:29.078Z,4.72
2019-05-14T11:13:58.747Z,2.20
2019-05-14T11:16:28.437Z,1.47
2019-05-14T11:18:57.809Z,2.50
2019-05-14T11:21:30.044Z,2.37
2019-05-14T11:23:58.657Z,2.72
2019-05-14T11:26:29.434Z,3.17
2019-05-14T11:28:59.078Z,1.67
2019-05-14T11:31:29.913Z,11.18
2019-05-14T11:33:59.450Z,7.30
2019-05-14T11:36:29.419Z,4.95
2019-05-14T11:39:03.578Z,3.90
2019-05-14T11:41:30.268Z,1.82
2019-05-14T11:43:59.839Z,3.22
2019-05-14T11:46:42.289Z,4.25
2019-05-14T11:48:59.990Z,2.15
2019-05-14T11:51:57.177Z,1.82
2019-05-14T11:54:00.430Z,1.90
2019-05-14T11:56:29.939Z,4.10
2019-05-14T11:58:59.212Z,2.90
2019-05-14T12:01:29.851Z,3.52
2019-05-14T12:03:59.873Z,2.83
2019-05-14T12:06:30.529Z,2.22
2019-05-14T12:09:00.055Z,2.42
2019-05-14T12:11:29.444Z,2.72
2019-05-14T12:13:59.855Z,3.40
2019-05-14T12:16:29.429Z,3.25
2019-05-14T12:18:59.141Z,4.60
2019-05-14T12:21:28.933Z,1.22
2019-05-14T12:24:04.027Z,3.62
2019-05-14T12:26:29.456Z,1.47
2019-05-14T12:28:59.480Z,1.65
2019-05-14T12:31:29.039Z,1.80
2019-05-14T12:33:58.483Z,1.55
2019-05-14T12:36:29.325Z,3.00
2019-05-14T12:38:59.286Z,5.58
2019-05-14T12:41:29.235Z,2.40
2019-05-14T12:43:59.069Z,3.65
2019-05-14T12:46:29.458Z,7.25
2019-05-14T12:48:59.052Z,6.53
2019-05-14T12:51:28.485Z,5.87
2019-05-14T12:53:58.363Z,2.83
2019-05-14T12:56:29.401Z,6.97
2019-05-14T12:58:58.915Z,3.35
2019-05-14T13:01:28.182Z,3.30
2019-05-14T13:03:59.229Z,4.55
2019-05-14T13:06:29.306Z,2.52
2019-05-14T13:08:59.133Z,4.00
2019-05-14T13:11:28.458Z,4.90
2019-05-14T13:13:58.538Z,7.05
2019-05-14T13:16:28.582Z,2.87
2019-05-14T13:18:59.914Z,2.02
2019-05-14T13:21:29.207Z,3.35
2019-05-14T13:23:58.509Z,1.60
2019-05-14T13:26:29.616Z,3.08
2019-05-14T13:28:59.016Z,18.07
2019-05-14T13:31:29.201Z,15.38
2019-05-14T13:33:59.385Z,7.10
2019-05-14T13:36:29.271Z,4.92
2019-05-14T13:38:59.580Z,9.18
2019-05-14T13:41:29.067Z,10.13
2019-05-14T13:43:58.960Z,2.77
2019-05-14T13:46:28.806Z,4.53
2019-05-14T13:48:59.136Z,2.83
2019-05-14T13:51:32.619Z,2.55
2019-05-14T13:53:59.698Z,5.58
2019-05-14T13:56:29.065Z,1.70
2019-05-14T13:58:59.253Z,5.37
2019-05-14T14:01:29.796Z,3.05
2019-05-14T14:04:09.644Z,3.35
2019-05-14T14:06:30.162Z,3.42
2019-05-14T14:08:59.532Z,3.35
2019-05-14T14:11:31.468Z,2.72
2019-05-14T14:13:59.805Z,3.92
2019-05-14T14:16:29.034Z,27.95
2019-05-14T14:19:03.508Z,8.10
2019-05-14T14:21:30.005Z,5.12
2019-05-14T14:23:59.943Z,4.60
2019-05-14T14:26:29.386Z,2.20
2019-05-14T14:28:59.959Z,2.65
2019-05-14T14:31:29.505Z,2.67
2019-05-14T14:33:58.764Z,2.98
2019-05-14T14:36:29.907Z,1.65
2019-05-14T14:38:58.998Z,7.17
2019-05-14T14:41:28.958Z,6.15
2019-05-14T14:43:58.653Z,8.70
2019-05-14T14:46:28.761Z,5.78
2019-05-14T14:49:02.440Z,7.58
2019-05-14T14:51:29.043Z,6.20
2019-05-14T14:54:02.889Z,7.03
2019-05-14T14:56:29.501Z,6.97
2019-05-14T14:58:58.814Z,5.55
2019-05-14T15:01:30.084Z,7.03
2019-05-14T15:03:59.993Z,6.90
2019-05-14T15:06:30.506Z,4.70
2019-05-14T15:09:00.994Z,2.60
2019-05-14T15:11:30.225Z,4.78
2019-05-14T15:13:59.491Z,3.37
2019-05-14T15:16:29.335Z,3.25
2019-05-14T15:18:58.680Z,4.30
2019-05-14T15:21:30.006Z,3.00
2019-05-14T15:24:09.376Z,2.17
2019-05-14T15:26:29.859Z,3.67
2019-05-14T15:28:59.160Z,2.95
2019-05-14T15:31:29.325Z,3.22
2019-05-14T15:33:59.477Z,8.25
2019-05-14T15:36:28.794Z,3.20
2019-05-14T15:38:59.097Z,4.50
2019-05-14T15:41:29.738Z,2.02
2019-05-14T15:43:59.168Z,2.42
2019-05-14T15:46:28.548Z,1.12
2019-05-14T15:48:59.561Z,2.42
2019-05-14T15:51:28.918Z,2.72
2019-05-14T15:54:16.049Z,1.50
2019-05-14T15:56:29.926Z,3.27
2019-05-14T15:59:01.423Z,9.25
2019-05-14T16:01:30.096Z,6.53
2019-05-14T16:03:59.409Z,4.20
2019-05-14T16:06:28.677Z,3.25
2019-05-14T16:08:59.032Z,4.15
2019-05-14T16:11:29.200Z,4.05
2019-05-14T16:13:58.687Z,1.77
2019-05-14T16:16:28.996Z,8.93
2019-05-14T16:18:58.547Z,13.13
2019-05-14T16:21:28.914Z,12.47
2019-05-14T16:23:58.886Z,5.03
2019-05-14T16:26:29.163Z,5.22
2019-05-14T16:28:59.424Z,6.72
2019-05-14T16:31:31.649Z,11.73
2019-05-14T16:34:00.294Z,24.07
2019-05-14T16:36:29.725Z,9.10
2019-05-14T16:38:59.343Z,11.40
2019-05-14T16:41:29.163Z,32.93
2019-05-14T16:43:58.834Z,9.47
2019-05-14T16:46:28.929Z,14.33
2019-05-14T16:48:58.557Z,13.95
2019-05-14T16:51:27.765Z,13.38
2019-05-14T16:53:59.046Z,29.90
2019-05-14T16:56:28.496Z,11.80
2019-05-14T16:58:58.421Z,12.47
2019-05-14T17:01:30.720Z,11.50
2019-05-14T17:03:59.587Z,14.15
2019-05-14T17:06:29.441Z,11.85
2019-05-14T17:08:59.474Z,9.58
2019-05-14T17:11:29.038Z,10.35
2019-05-14T17:13:58.738Z,9.60
2019-05-14T17:16:29.011Z,6.00
2019-05-14T17:18:59.169Z,4.90
2019-05-14T17:21:28.670Z,2.22
2019-05-14T17:23:58.866Z,2.37
2019-05-14T17:26:28.860Z,1.80
2019-05-14T17:28:59.618Z,5.60
2019-05-14T17:31:31.188Z,3.00
2019-05-14T17:34:00.829Z,5.30
2019-05-14T17:36:30.698Z,3.60
2019-05-14T17:39:00.510Z,7.50
2019-05-14T17:41:29.983Z,12.88
2019-05-14T17:43:59.422Z,2.67
2019-05-14T17:46:29.046Z,5.25
2019-05-14T17:48:59.092Z,9.03
2019-05-14T17:51:28.751Z,15.03
2019-05-14T17:53:58.709Z,8.93
2019-05-14T17:56:28.486Z,12.28
2019-05-14T17:58:58.291Z,19.20
2019-05-14T18:01:28.998Z,25.27
2019-05-14T18:03:58.688Z,32.98
2019-05-14T18:06:28.704Z,16.90
2019-05-14T18:08:58.467Z,17.05
2019-05-14T18:11:28.502Z,9.50
2019-05-14T18:13:58.907Z,10.27
2019-05-14T18:16:28.702Z,6.83
2019-05-14T18:18:58.394Z,19.60
2019-05-14T18:21:28.445Z,20.10
2019-05-14T18:23:58.578Z,16.43
2019-05-14T18:26:29.039Z,43.40
2019-05-14T18:28:58.694Z,12.47
2019-05-14T18:31:28.125Z,50.23
2019-05-14T18:33:58.739Z,38.33
2019-05-14T18:36:28.570Z,21.23
2019-05-14T18:38:58.724Z,32.10
2019-05-14T18:41:29.264Z,46.10
2019-05-14T18:43:59.008Z,8.77
2019-05-14T18:46:28.761Z,17.70
2019-05-14T18:48:59.171Z,31.43
2019-05-14T18:51:29.342Z,24.23
2019-05-14T18:53:59.095Z,16.13
2019-05-14T18:56:29.387Z,8.53
2019-05-14T18:58:58.951Z,8.07
2019-05-14T19:01:29.038Z,43.70
2019-05-14T19:03:59.439Z,23.37
2019-05-14T19:06:29.008Z,81.63
2019-05-14T19:08:58.376Z,81.37
2019-05-14T19:11:28.245Z,38.70
2019-05-14T19:13:58.159Z,26.53
2019-05-14T19:16:28.831Z,24.37
2019-05-14T19:18:58.787Z,30.83
2019-05-14T19:21:28.711Z,33.37
2019-05-14T19:23:58.167Z,55.57
2019-05-14T19:26:35.282Z,52.43
2019-05-14T19:29:00.537Z,54.20
2019-05-14T19:31:29.999Z,31.83
2019-05-14T19:33:59.870Z,25.13
2019-05-14T19:36:29.297Z,18.00
2019-05-14T19:38:58.713Z,18.97
2019-05-14T19:41:28.223Z,8.67
2019-05-14T19:43:59.609Z,12.17
2019-05-14T19:46:29.698Z,20.47
2019-05-14T19:48:59.251Z,13.23
2019-05-14T19:51:29.424Z,23.70
2019-05-14T19:53:58.947Z,10.60
2019-05-14T19:56:29.438Z,19.40
2019-05-14T19:58:59.300Z,2.80
2019-05-14T20:01:28.910Z,2.97
2019-05-14T20:03:58.931Z,2.77
2019-05-14T20:06:29.482Z,3.77
2019-05-14T20:08:59.419Z,2.80
2019-05-14T20:11:29.164Z,2.43
2019-05-14T20:13:59.163Z,1.70
2019-05-14T20:16:28.998Z,2.60
2019-05-14T20:18:58.470Z,3.27
2019-05-14T20:21:28.320Z,12.43
2019-05-14T20:23:59.026Z,4.77
2019-05-14T20:26:28.993Z,5.70
2019-05-14T20:28:59.097Z,5.40
2019-05-14T20:31:29.667Z,5.40
2019-05-14T20:33:59.663Z,7.77
2019-05-14T20:36:29.003Z,11.43
2019-05-14T20:38:58.971Z,6.17
2019-05-14T20:41:28.826Z,4.37
2019-05-14T20:43:58.695Z,4.93
2019-05-14T20:46:28.678Z,13.20
2019-05-14T20:48:59.205Z,14.93
2019-05-14T20:51:30.429Z,8.77
2019-05-14T20:54:00.222Z,7.47
2019-05-14T20:56:29.622Z,12.73
2019-05-14T20:58:59.103Z,10.27
2019-05-14T21:01:29.102Z,8.37
2019-05-14T21:03:59.392Z,10.27
2019-05-14T21:06:28.822Z,3.30
2019-05-14T21:08:58.569Z,4.87
2019-05-14T21:11:28.841Z,4.47
2019-05-14T21:13:58.401Z,4.43
2019-05-14T21:16:28.420Z,3.23
2019-05-14T21:18:59.226Z,2.10
2019-05-14T21:21:28.858Z,2.97
2019-05-14T21:23:58.772Z,2.40
2019-05-14T21:26:29.221Z,5.63
2019-05-14T21:28:59.510Z,4.20
2019-05-14T21:31:28.939Z,2.23
2019-05-14T21:33:58.737Z,1.97
2019-05-14T21:36:28.505Z,3.57
2019-05-14T21:38:58.647Z,1.90
2019-05-14T21:41:29.068Z,3.63
2019-05-14T21:44:01.352Z,3.57
2019-05-14T21:46:31.660Z,4.47
2019-05-14T21:49:01.459Z,1.70
2019-05-14T21:51:30.725Z,4.07
2019-05-14T21:54:00.054Z,3.07
2019-05-14T21:56:29.327Z,2.17
2019-05-14T21:59:01.292Z,1.70
2019-05-14T22:01:30.937Z,1.90
2019-05-14T22:04:00.435Z,3.37
2019-05-14T22:06:29.879Z,5.80
2019-05-14T22:08:59.283Z,10.07
2019-05-14T22:11:28.527Z,12.80
2019-05-14T22:13:58.296Z,7.50
2019-05-14T22:16:28.227Z,2.67
2019-05-14T22:18:59.332Z,2.50
2019-05-14T22:21:29.111Z,2.70
2019-05-14T22:23:58.872Z,2.67
2019-05-14T22:26:28.347Z,2.23
2019-05-14T22:28:58.664Z,2.70
2019-05-14T22:31:28.938Z,1.27
2019-05-14T22:33:58.415Z,1.83
2019-05-14T22:36:29.301Z,1.40
2019-05-14T22:38:58.445Z,1.70
2019-05-14T22:41:29.082Z,1.97
2019-05-14T22:43:59.946Z,2.13
2019-05-14T22:46:29.787Z,5.77
2019-05-14T22:48:58.990Z,1.40
2019-05-14T22:51:28.203Z,1.70
2019-05-14T22:53:58.968Z,2.50
2019-05-14T22:56:28.414Z,2.43
2019-05-14T22:58:58.276Z,3.13
2019-05-14T23:01:28.884Z,2.83
2019-05-14T23:03:59.642Z,1.90
2019-05-14T23:06:29.146Z,1.50
2019-05-14T23:08:58.421Z,2.17
2019-05-14T23:11:28.851Z,2.67
2019-05-14T23:13:58.340Z,1.57
2019-05-14T23:16:34.395Z,2.17
2019-05-14T23:18:58.509Z,2.17
2019-05-14T23:21:28.379Z,2.30
2019-05-14T23:23:58.240Z,2.63
2019-05-14T23:26:28.592Z,1.80
2019-05-14T23:28:58.768Z,5.70
2019-05-14T23:31:28.813Z,20.67
2019-05-14T23:33:58.646Z,8.73
2019-05-14T23:36:29.141Z,6.23
2019-05-14T23:38:59.422Z,5.63
2019-05-14T23:41:28.790Z,3.50
2019-05-14T23:43:58.001Z,4.87
2019-05-14T23:46:29.175Z,4.60
2019-05-14T23:48:59.207Z,6.80
2019-05-14T23:51:29.122Z,3.57
2019-05-14T23:53:58.702Z,2.30
2019-05-14T23:56:28.832Z,2.70
2019-05-14T23:59:01.803Z,5.20
